Terminal Aerodrome Forecast
Issued by NWS

Home | Current Version | Previous Version | Text Only | Print | Product List | Glossary On
Versions: 1 2 3 4 5 6 7 8 9 10 11 12 13 14 15 16 17 18 19 20 21 22 23 24
000
FTUS41 KBTV 021736
TAFPBG
TAF
KPBG 021736Z 0218/0318 30013G26KT P6SM VCSH BKN040
     FM022000 30014G29KT P6SM SCT045
     FM030200 32011G23KT P6SM SCT250
     FM030500 33007KT P6SM FEW250=

USA.gov is the U.S. government's official web portal to all federal, state and local government web resources and services.